sensor_id;sensor_type;location;lat;lon;timestamp;pressure;altitude;pressure_sealevel;temperature;humidity
75438;BME280;64015;49.392;15.582;2024-02-14T00:00:12;96202.94;;;-2.72;100.00
75438;BME280;64015;49.392;15.582;2024-02-14T00:03:04;96190.41;;;-2.83;100.00
75438;BME280;64015;49.392;15.582;2024-02-14T00:05:32;96203.44;;;-2.77;100.00
75438;BME280;64015;49.392;15.582;2024-02-14T00:08:00;96209.41;;;-2.76;100.00
75438;BME280;64015;49.392;15.582;2024-02-14T00:10:26;96218.41;;;-2.72;100.00
75438;BME280;64015;49.392;15.582;2024-02-14T00:12:52;96198.00;;;-2.82;100.00
75438;BME280;64015;49.392;15.582;2024-02-14T00:15:18;96213.41;;;-2.74;100.00
75438;BME280;64015;49.392;15.582;2024-02-14T00:17:44;96206.22;;;-2.78;100.00
75438;BME280;64015;49.392;15.582;2024-02-14T00:20:10;96204.84;;;-2.89;100.00
75438;BME280;64015;49.392;15.582;2024-02-14T00:22:38;96209.03;;;-2.88;100.00
75438;BME280;64015;49.392;15.582;2024-02-14T00:25:05;96223.00;;;-2.82;100.00
75438;BME280;64015;49.392;15.582;2024-02-14T00:27:30;96223.34;;;-2.85;100.00
75438;BME280;64015;49.392;15.582;2024-02-14T00:29:56;96203.09;;;-2.96;100.00
75438;BME280;64015;49.392;15.582;2024-02-14T00:32:22;96206.31;;;-2.94;100.00
75438;BME280;64015;49.392;15.582;2024-02-14T00:34:47;96223.72;;;-2.88;100.00
75438;BME280;64015;49.392;15.582;2024-02-14T00:37:15;96222.25;;;-2.91;100.00
75438;BME280;64015;49.392;15.582;2024-02-14T00:39:41;96222.75;;;-2.95;100.00
75438;BME280;64015;49.392;15.582;2024-02-14T00:42:07;96227.66;;;-3.01;100.00
75438;BME280;64015;49.392;15.582;2024-02-14T00:44:33;96229.16;;;-3.06;100.00
75438;BME280;64015;49.392;15.582;2024-02-14T00:46:59;96224.75;;;-3.06;100.00
75438;BME280;64015;49.392;15.582;2024-02-14T00:49:28;96237.97;;;-3.01;100.00
75438;BME280;64015;49.392;15.582;2024-02-14T00:51:54;96234.41;;;-2.99;100.00
75438;BME280;64015;49.392;15.582;2024-02-14T00:54:21;96216.59;;;-3.09;100.00
75438;BME280;64015;49.392;15.582;2024-02-14T00:56:46;96237.81;;;-2.99;100.00
75438;BME280;64015;49.392;15.582;2024-02-14T00:59:12;96245.72;;;-3.01;100.00
75438;BME280;64015;49.392;15.582;2024-02-14T01:01:38;96233.16;;;-3.04;100.00
75438;BME280;64015;49.392;15.582;2024-02-14T01:04:04;96209.88;;;-3.18;100.00
75438;BME280;64015;49.392;15.582;2024-02-14T01:06:30;96224.81;;;-3.14;100.00
75438;BME280;64015;49.392;15.582;2024-02-14T01:08:56;96218.75;;;-3.21;100.00
75438;BME280;64015;49.392;15.582;2024-02-14T01:11:22;96240.59;;;-3.09;100.00
75438;BME280;64015;49.392;15.582;2024-02-14T01:13:48;96223.09;;;-3.21;100.00
75438;BME280;64015;49.392;15.582;2024-02-14T01:16:14;96217.13;;;-3.22;100.00
75438;BME280;64015;49.392;15.582;2024-02-14T01:18:40;96220.81;;;-3.16;100.00
75438;BME280;64015;49.392;15.582;2024-02-14T01:21:21;96208.13;;;-3.26;100.00
75438;BME280;64015;49.392;15.582;2024-02-14T01:23:47;96233.19;;;-3.12;100.00
75438;BME280;64015;49.392;15.582;2024-02-14T01:26:22;96238.53;;;-3.13;100.00
75438;BME280;64015;49.392;15.582;2024-02-14T01:28:48;96231.59;;;-3.13;100.00
75438;BME280;64015;49.392;15.582;2024-02-14T01:31:14;96232.38;;;-3.12;100.00
75438;BME280;64015;49.392;15.582;2024-02-14T01:33:54;96227.22;;;-3.12;100.00
75438;BME280;64015;49.392;15.582;2024-02-14T01:36:19;96207.19;;;-3.25;100.00
75438;BME280;64015;49.392;15.582;2024-02-14T01:38:45;96195.56;;;-3.29;100.00
75438;BME280;64015;49.392;15.582;2024-02-14T01:41:11;96223.75;;;-3.19;100.00
75438;BME280;64015;49.392;15.582;2024-02-14T01:43:37;96219.72;;;-3.22;100.00
75438;BME280;64015;49.392;15.582;2024-02-14T01:46:06;96204.81;;;-3.34;100.00
75438;BME280;64015;49.392;15.582;2024-02-14T01:48:34;96213.13;;;-3.24;100.00
75438;BME280;64015;49.392;15.582;2024-02-14T01:51:00;96213.91;;;-3.24;100.00
75438;BME280;64015;49.392;15.582;2024-02-14T01:53:27;96214.69;;;-3.15;100.00
75438;BME280;64015;49.392;15.582;2024-02-14T01:55:56;96211.75;;;-3.12;100.00
75438;BME280;64015;49.392;15.582;2024-02-14T01:58:23;96208.69;;;-3.08;100.00
75438;BME280;64015;49.392;15.582;2024-02-14T02:00:51;96209.06;;;-2.96;100.00
75438;BME280;64015;49.392;15.582;2024-02-14T02:03:23;96215.44;;;-2.84;100.00
75438;BME280;64015;49.392;15.582;2024-02-14T02:05:58;96193.06;;;-2.91;100.00
75438;BME280;64015;49.392;15.582;2024-02-14T02:08:24;96212.53;;;-2.66;100.00
75438;BME280;64015;49.392;15.582;2024-02-14T02:10:50;96205.78;;;-2.67;100.00
75438;BME280;64015;49.392;15.582;2024-02-14T02:13:16;96203.19;;;-2.67;100.00
75438;BME280;64015;49.392;15.582;2024-02-14T02:15:42;96199.38;;;-2.71;100.00
75438;BME280;64015;49.392;15.582;2024-02-14T02:18:10;96202.84;;;-2.64;100.00
75438;BME280;64015;49.392;15.582;2024-02-14T02:20:36;96191.78;;;-2.73;100.00
75438;BME280;64015;49.392;15.582;2024-02-14T02:23:02;96199.38;;;-2.71;100.00
75438;BME280;64015;49.392;15.582;2024-02-14T02:25:28;96209.28;;;-2.60;100.00
75438;BME280;64015;49.392;15.582;2024-02-14T02:27:54;96203.94;;;-2.58;100.00
75438;BME280;64015;49.392;15.582;2024-02-14T02:30:25;96222.94;;;-2.51;100.00
75438;BME280;64015;49.392;15.582;2024-02-14T02:32:51;96222.56;;;-2.48;100.00
75438;BME280;64015;49.392;15.582;2024-02-14T02:35:17;96204.06;;;-2.52;100.00
75438;BME280;64015;49.392;15.582;2024-02-14T02:37:51;96197.28;;;-2.53;100.00
75438;BME280;64015;49.392;15.582;2024-02-14T02:40:17;96199.31;;;-2.48;100.00
75438;BME280;64015;49.392;15.582;2024-02-14T02:42:43;96202.38;;;-2.45;100.00
75438;BME280;64015;49.392;15.582;2024-02-14T02:45:11;96196.50;;;-2.39;100.00
75438;BME280;64015;49.392;15.582;2024-02-14T02:47:37;96200.50;;;-2.36;100.00
75438;BME280;64015;49.392;15.582;2024-02-14T02:50:08;96209.53;;;-2.32;100.00
75438;BME280;64015;49.392;15.582;2024-02-14T02:52:34;96217.53;;;-2.27;100.00
75438;BME280;64015;49.392;15.582;2024-02-14T02:55:00;96199.72;;;-2.37;100.00
75438;BME280;64015;49.392;15.582;2024-02-14T02:57:29;96201.31;;;-2.36;100.00
75438;BME280;64015;49.392;15.582;2024-02-14T02:59:57;96214.22;;;-2.36;100.00
75438;BME280;64015;49.392;15.582;2024-02-14T03:02:23;96205.94;;;-2.31;100.00
75438;BME280;64015;49.392;15.582;2024-02-14T03:05:00;96214.44;;;-2.22;100.00
75438;BME280;64015;49.392;15.582;2024-02-14T03:07:28;96191.97;;;-2.37;100.00
75438;BME280;64015;49.392;15.582;2024-02-14T03:09:54;96217.06;;;-2.31;100.00
75438;BME280;64015;49.392;15.582;2024-02-14T03:12:20;96192.53;;;-2.49;100.00
75438;BME280;64015;49.392;15.582;2024-02-14T03:14:45;96184.72;;;-2.56;100.00
75438;BME280;64015;49.392;15.582;2024-02-14T03:17:12;96193.25;;;-2.55;100.00
75438;BME280;64015;49.392;15.582;2024-02-14T03:19:39;96215.00;;;-2.50;100.00
75438;BME280;64015;49.392;15.582;2024-02-14T03:22:05;96208.28;;;-2.59;100.00
75438;BME280;64015;49.392;15.582;2024-02-14T03:24:34;96203.81;;;-2.65;100.00
75438;BME280;64015;49.392;15.582;2024-02-14T03:27:03;96221.19;;;-2.59;100.00
75438;BME280;64015;49.392;15.582;2024-02-14T03:29:29;96208.91;;;-2.72;100.00
75438;BME280;64015;49.392;15.582;2024-02-14T03:31:55;96206.47;;;-2.73;100.00
75438;BME280;64015;49.392;15.582;2024-02-14T03:34:24;96195.69;;;-2.77;100.00
75438;BME280;64015;49.392;15.582;2024-02-14T03:36:51;96209.00;;;-2.65;100.00
75438;BME280;64015;49.392;15.582;2024-02-14T03:39:16;96209.00;;;-2.65;100.00
75438;BME280;64015;49.392;15.582;2024-02-14T03:41:42;96194.84;;;-2.69;100.00
75438;BME280;64015;49.392;15.582;2024-02-14T03:44:08;96209.34;;;-2.68;100.00
75438;BME280;64015;49.392;15.582;2024-02-14T03:46:35;96221.16;;;-2.51;100.00
75438;BME280;64015;49.392;15.582;2024-02-14T03:49:01;96203.13;;;-2.59;100.00
75438;BME280;64015;49.392;15.582;2024-02-14T03:51:27;96203.69;;;-2.49;100.00
75438;BME280;64015;49.392;15.582;2024-02-14T03:53:52;96215.84;;;-2.35;100.00
75438;BME280;64015;49.392;15.582;2024-02-14T03:56:18;96203.91;;;-2.36;100.00
75438;BME280;64015;49.392;15.582;2024-02-14T03:58:44;96212.84;;;-2.23;100.00
75438;BME280;64015;49.392;15.582;2024-02-14T04:01:13;96200.53;;;-2.21;100.00
75438;BME280;64015;49.392;15.582;2024-02-14T04:03:39;96234.94;;;-2.06;100.00
75438;BME280;64015;49.392;15.582;2024-02-14T04:06:05;96215.34;;;-2.15;100.00
75438;BME280;64015;49.392;15.582;2024-02-14T04:08:31;96227.81;;;-2.04;100.00
75438;BME280;64015;49.392;15.582;2024-02-14T04:10:57;96205.44;;;-2.12;100.00
75438;BME280;64015;49.392;15.582;2024-02-14T04:13:23;96232.38;;;-1.92;100.00
75438;BME280;64015;49.392;15.582;2024-02-14T04:15:49;96222.03;;;-1.92;100.00
75438;BME280;64015;49.392;15.582;2024-02-14T04:18:17;96213.72;;;-2.02;100.00
75438;BME280;64015;49.392;15.582;2024-02-14T04:20:46;96213.03;;;-1.96;100.00
75438;BME280;64015;49.392;15.582;2024-02-14T04:23:11;96222.31;;;-1.86;100.00
75438;BME280;64015;49.392;15.582;2024-02-14T04:25:37;96205.44;;;-1.97;100.00
75438;BME280;64015;49.392;15.582;2024-02-14T04:28:03;96220.25;;;-1.91;100.00
75438;BME280;64015;49.392;15.582;2024-02-14T04:30:29;96206.09;;;-1.95;100.00
75438;BME280;64015;49.392;15.582;2024-02-14T04:32:55;96212.38;;;-1.83;100.00
75438;BME280;64015;49.392;15.582;2024-02-14T04:35:21;96221.31;;;-1.71;100.00
75438;BME280;64015;49.392;15.582;2024-02-14T04:37:46;96210.09;;;-1.78;100.00
75438;BME280;64015;49.392;15.582;2024-02-14T04:40:29;96227.81;;;-1.75;100.00
75438;BME280;64015;49.392;15.582;2024-02-14T04:42:55;96229.69;;;-1.69;100.00
75438;BME280;64015;49.392;15.582;2024-02-14T04:45:27;96212.91;;;-1.73;100.00
75438;BME280;64015;49.392;15.582;2024-02-14T04:47:52;96231.47;;;-1.55;100.00
75438;BME280;64015;49.392;15.582;2024-02-14T04:50:18;96240.09;;;-1.47;100.00
75438;BME280;64015;49.392;15.582;2024-02-14T04:52:44;96224.97;;;-1.51;100.00
75438;BME280;64015;49.392;15.582;2024-02-14T04:55:10;96204.63;;;-1.54;100.00
75438;BME280;64015;49.392;15.582;2024-02-14T04:57:36;96222.09;;;-1.41;100.00
75438;BME280;64015;49.392;15.582;2024-02-14T05:00:15;96220.66;;;-1.43;100.00
75438;BME280;64015;49.392;15.582;2024-02-14T05:02:44;96206.16;;;-1.59;100.00
75438;BME280;64015;49.392;15.582;2024-02-14T05:05:10;96213.72;;;-1.58;100.00
75438;BME280;64015;49.392;15.582;2024-02-14T05:07:36;96205.69;;;-1.63;100.00
75438;BME280;64015;49.392;15.582;2024-02-14T05:10:05;96226.91;;;-1.53;100.00
75438;BME280;64015;49.392;15.582;2024-02-14T05:12:33;96198.28;;;-1.66;100.00
75438;BME280;64015;49.392;15.582;2024-02-14T05:14:59;96225.19;;;-1.45;100.00
75438;BME280;64015;49.392;15.582;2024-02-14T05:17:24;96205.66;;;-1.48;100.00
75438;BME280;64015;49.392;15.582;2024-02-14T05:19:50;96206.75;;;-1.42;100.00
75438;BME280;64015;49.392;15.582;2024-02-14T05:22:16;96203.69;;;-1.31;100.00
75438;BME280;64015;49.392;15.582;2024-02-14T05:24:57;96203.69;;;-1.31;100.00
75438;BME280;64015;49.392;15.582;2024-02-14T05:27:22;96222.56;;;-1.16;100.00
75438;BME280;64015;49.392;15.582;2024-02-14T05:29:48;96213.75;;;-1.22;100.00
75438;BME280;64015;49.392;15.582;2024-02-14T05:32:13;96226.00;;;-1.09;100.00
75438;BME280;64015;49.392;15.582;2024-02-14T05:34:39;96201.34;;;-1.26;100.00
75438;BME280;64015;49.392;15.582;2024-02-14T05:37:05;96196.34;;;-1.28;100.00
75438;BME280;64015;49.392;15.582;2024-02-14T05:39:31;96193.16;;;-1.30;100.00
75438;BME280;64015;49.392;15.582;2024-02-14T05:41:57;96211.69;;;-1.26;100.00
75438;BME280;64015;49.392;15.582;2024-02-14T05:44:23;96196.03;;;-1.39;100.00
75438;BME280;64015;49.392;15.582;2024-02-14T05:46:49;96192.81;;;-1.41;100.00
75438;BME280;64015;49.392;15.582;2024-02-14T05:49:15;96221.41;;;-1.28;100.00
75438;BME280;64015;49.392;15.582;2024-02-14T05:51:40;96205.75;;;-1.41;100.00
75438;BME280;64015;49.392;15.582;2024-02-14T05:54:06;96198.88;;;-1.34;100.00
75438;BME280;64015;49.392;15.582;2024-02-14T05:56:32;96203.31;;;-1.28;100.00
75438;BME280;64015;49.392;15.582;2024-02-14T05:58:58;96208.63;;;-1.15;100.00
75438;BME280;64015;49.392;15.582;2024-02-14T06:01:23;96214.69;;;-1.08;100.00
75438;BME280;64015;49.392;15.582;2024-02-14T06:03:49;96201.25;;;-0.97;100.00
75438;BME280;64015;49.392;15.582;2024-02-14T06:06:15;96211.38;;;-0.81;100.00
75438;BME280;64015;49.392;15.582;2024-02-14T06:08:41;96191.03;;;-0.84;100.00
75438;BME280;64015;49.392;15.582;2024-02-14T06:11:07;96198.84;;;-0.77;100.00
75438;BME280;64015;49.392;15.582;2024-02-14T06:13:33;96195.88;;;-0.74;100.00
75438;BME280;64015;49.392;15.582;2024-02-14T06:15:59;96202.34;;;-0.63;100.00
75438;BME280;64015;49.392;15.582;2024-02-14T06:18:30;96214.00;;;-0.53;100.00
75438;BME280;64015;49.392;15.582;2024-02-14T06:21:04;96209.31;;;-0.43;100.00
75438;BME280;64015;49.392;15.582;2024-02-14T06:23:30;96210.09;;;-0.42;100.00
75438;BME280;64015;49.392;15.582;2024-02-14T06:25:57;96214.78;;;-0.31;100.00
75438;BME280;64015;49.392;15.582;2024-02-14T06:28:23;96222.63;;;-0.18;100.00
75438;BME280;64015;49.392;15.582;2024-02-14T06:30:49;96214.28;;;-0.20;100.00
75438;BME280;64015;49.392;15.582;2024-02-14T06:33:17;96237.50;;;-0.05;100.00
75438;BME280;64015;49.392;15.582;2024-02-14T06:35:43;96222.91;;;-0.13;100.00
75438;BME280;64015;49.392;15.582;2024-02-14T06:38:09;96212.72;;;-0.14;100.00
75438;BME280;64015;49.392;15.582;2024-02-14T06:40:35;96230.34;;;-0.03;100.00
75438;BME280;64015;49.392;15.582;2024-02-14T06:43:01;96223.13;;;-0.08;100.00
75438;BME280;64015;49.392;15.582;2024-02-14T06:45:27;96223.50;;;-0.11;100.00
75438;BME280;64015;49.392;15.582;2024-02-14T06:48:01;96226.47;;;-0.14;100.00
75438;BME280;64015;49.392;15.582;2024-02-14T06:50:27;96250.72;;;0.00;100.00
75438;BME280;64015;49.392;15.582;2024-02-14T06:52:54;96230.06;;;-0.15;100.00
75438;BME280;64015;49.392;15.582;2024-02-14T06:55:25;96249.50;;;0.03;100.00
75438;BME280;64015;49.392;15.582;2024-02-14T06:57:52;96247.72;;;0.03;100.00
75438;BME280;64015;49.392;15.582;2024-02-14T07:00:18;96227.72;;;-0.10;100.00
75438;BME280;64015;49.392;15.582;2024-02-14T07:02:53;96243.34;;;0.04;100.00
75438;BME280;64015;49.392;15.582;2024-02-14T07:05:19;96221.47;;;-0.15;100.00
75438;BME280;64015;49.392;15.582;2024-02-14T07:07:45;96251.75;;;0.06;100.00
75438;BME280;64015;49.392;15.582;2024-02-14T07:10:11;96234.34;;;-0.01;100.00
75438;BME280;64015;49.392;15.582;2024-02-14T07:12:36;96252.50;;;0.27;100.00
75438;BME280;64015;49.392;15.582;2024-02-14T07:15:03;96248.06;;;0.28;100.00
75438;BME280;64015;49.392;15.582;2024-02-14T07:17:42;96227.31;;;0.28;100.00
75438;BME280;64015;49.392;15.582;2024-02-14T07:20:08;96241.00;;;0.43;100.00
75438;BME280;64015;49.392;15.582;2024-02-14T07:22:38;96249.50;;;0.71;100.00
75438;BME280;64015;49.392;15.582;2024-02-14T07:25:04;96233.16;;;0.78;100.00
75438;BME280;64015;49.392;15.582;2024-02-14T07:27:31;96227.59;;;0.94;100.00
75438;BME280;64015;49.392;15.582;2024-02-14T07:29:59;96237.69;;;1.23;100.00
75438;BME280;64015;49.392;15.582;2024-02-14T07:32:25;96235.31;;;1.35;100.00
75438;BME280;64015;49.392;15.582;2024-02-14T07:34:53;96217.34;;;1.46;100.00
75438;BME280;64015;49.392;15.582;2024-02-14T07:37:18;96230.75;;;1.57;100.00
75438;BME280;64015;49.392;15.582;2024-02-14T07:39:45;96241.34;;;1.75;100.00
75438;BME280;64015;49.392;15.582;2024-02-14T07:42:12;96226.72;;;1.80;100.00
75438;BME280;64015;49.392;15.582;2024-02-14T07:44:38;96233.09;;;2.04;100.00
75438;BME280;64015;49.392;15.582;2024-02-14T07:47:04;96218.91;;;2.07;100.00
75438;BME280;64015;49.392;15.582;2024-02-14T07:49:30;96238.06;;;2.39;100.00
75438;BME280;64015;49.392;15.582;2024-02-14T07:51:56;96241.22;;;2.54;100.00
75438;BME280;64015;49.392;15.582;2024-02-14T07:54:21;96224.00;;;2.53;100.00
75438;BME280;64015;49.392;15.582;2024-02-14T07:56:47;96220.59;;;2.59;100.00
75438;BME280;64015;49.392;15.582;2024-02-14T07:59:13;96221.97;;;2.68;100.00
75438;BME280;64015;49.392;15.582;2024-02-14T08:01:39;96230.53;;;2.75;100.00
75438;BME280;64015;49.392;15.582;2024-02-14T08:04:04;96234.69;;;2.89;100.00
75438;BME280;64015;49.392;15.582;2024-02-14T08:06:30;96229.41;;;3.03;100.00
75438;BME280;64015;49.392;15.582;2024-02-14T08:08:56;96224.56;;;3.06;100.00
75438;BME280;64015;49.392;15.582;2024-02-14T08:11:27;96240.91;;;3.33;100.00
75438;BME280;64015;49.392;15.582;2024-02-14T08:13:53;96240.19;;;3.44;100.00
75438;BME280;64015;49.392;15.582;2024-02-14T08:16:19;96235.84;;;3.69;100.00
75438;BME280;64015;49.392;15.582;2024-02-14T08:18:44;96229.38;;;3.72;100.00
75438;BME280;64015;49.392;15.582;2024-02-14T08:21:10;96238.06;;;3.91;100.00
75438;BME280;64015;49.392;15.582;2024-02-14T08:23:37;96263.00;;;4.11;100.00
75438;BME280;64015;49.392;15.582;2024-02-14T08:26:12;96254.06;;;4.19;100.00
75438;BME280;64015;49.392;15.582;2024-02-14T08:28:37;96264.38;;;4.14;100.00
75438;BME280;64015;49.392;15.582;2024-02-14T08:31:10;96250.72;;;4.12;100.00
75438;BME280;64015;49.392;15.582;2024-02-14T08:33:35;96257.31;;;4.39;100.00
75438;BME280;64015;49.392;15.582;2024-02-14T08:36:03;96263.63;;;4.50;100.00
75438;BME280;64015;49.392;15.582;2024-02-14T08:38:28;96249.50;;;4.58;100.00
75438;BME280;64015;49.392;15.582;2024-02-14T08:40:54;96252.53;;;4.73;100.00
75438;BME280;64015;49.392;15.582;2024-02-14T08:43:20;96255.31;;;4.78;100.00
75438;BME280;64015;49.392;15.582;2024-02-14T08:45:47;96262.34;;;4.96;100.00
75438;BME280;64015;49.392;15.582;2024-02-14T08:48:13;96261.69;;;5.00;100.00
75438;BME280;64015;49.392;15.582;2024-02-14T08:50:39;96261.28;;;5.15;100.00
75438;BME280;64015;49.392;15.582;2024-02-14T08:53:04;96251.19;;;5.18;100.00
75438;BME280;64015;49.392;15.582;2024-02-14T08:55:30;96248.97;;;5.34;100.00
75438;BME280;64015;49.392;15.582;2024-02-14T08:57:58;96252.44;;;5.46;100.00
75438;BME280;64015;49.392;15.582;2024-02-14T09:00:24;96241.19;;;5.57;95.66
75438;BME280;64015;49.392;15.582;2024-02-14T09:02:50;96257.41;;;5.77;93.50
75438;BME280;64015;49.392;15.582;2024-02-14T09:05:16;96261.13;;;5.99;92.86
75438;BME280;64015;49.392;15.582;2024-02-14T09:07:45;96258.41;;;6.18;91.47
75438;BME280;64015;49.392;15.582;2024-02-14T09:10:11;96256.25;;;6.15;89.56
75438;BME280;64015;49.392;15.582;2024-02-14T09:12:40;96240.75;;;6.13;87.80
75438;BME280;64015;49.392;15.582;2024-02-14T09:15:07;96240.75;;;6.13;87.36
75438;BME280;64015;49.392;15.582;2024-02-14T09:17:33;96241.88;;;6.06;87.17
75438;BME280;64015;49.392;15.582;2024-02-14T09:19:59;96244.41;;;6.01;87.24
75438;BME280;64015;49.392;15.582;2024-02-14T09:22:25;96242.22;;;5.97;87.23
75438;BME280;64015;49.392;15.582;2024-02-14T09:24:51;96264.44;;;6.53;87.26
75438;BME280;64015;49.392;15.582;2024-02-14T09:27:20;96232.69;;;6.90;85.31
75438;BME280;64015;49.392;15.582;2024-02-14T09:29:46;96247.69;;;7.46;82.08
75438;BME280;64015;49.392;15.582;2024-02-14T09:32:12;96241.00;;;6.98;80.49
75438;BME280;64015;49.392;15.582;2024-02-14T09:34:41;96234.03;;;7.04;78.28
75438;BME280;64015;49.392;15.582;2024-02-14T09:37:07;96245.28;;;6.64;79.16
75438;BME280;64015;49.392;15.582;2024-02-14T09:39:33;96248.59;;;6.60;80.66
75438;BME280;64015;49.392;15.582;2024-02-14T09:42:13;96233.69;;;5.90;84.74
75438;BME280;64015;49.392;15.582;2024-02-14T09:44:40;96237.31;;;5.89;84.79
75438;BME280;64015;49.392;15.582;2024-02-14T09:47:07;96241.56;;;6.25;85.31
75438;BME280;64015;49.392;15.582;2024-02-14T09:49:35;96242.47;;;6.19;85.65
75438;BME280;64015;49.392;15.582;2024-02-14T09:52:05;96233.22;;;6.40;84.68
75438;BME280;64015;49.392;15.582;2024-02-14T09:57:54;96239.94;;;6.59;81.88
75438;BME280;64015;49.392;15.582;2024-02-14T10:00:21;96240.03;;;7.16;78.37
75438;BME280;64015;49.392;15.582;2024-02-14T10:02:52;96229.56;;;7.61;75.65
75438;BME280;64015;49.392;15.582;2024-02-14T10:05:45;96225.50;;;7.25;75.55
75438;BME280;64015;49.392;15.582;2024-02-14T10:08:11;96234.59;;;7.06;76.92
75438;BME280;64015;49.392;15.582;2024-02-14T10:10:38;96227.28;;;7.08;77.53
75438;BME280;64015;49.392;15.582;2024-02-14T10:13:07;96237.56;;;7.09;77.70
75438;BME280;64015;49.392;15.582;2024-02-14T10:15:33;96222.88;;;7.25;77.83
75438;BME280;64015;49.392;15.582;2024-02-14T10:17:59;96235.44;;;6.95;78.90
75438;BME280;64015;49.392;15.582;2024-02-14T10:20:32;96224.97;;;6.83;79.59
75438;BME280;64015;49.392;15.582;2024-02-14T10:23:01;96242.31;;;6.84;80.00
75438;BME280;64015;49.392;15.582;2024-02-14T10:25:30;96240.53;;;6.38;81.02
75438;BME280;64015;49.392;15.582;2024-02-14T10:28:04;96226.50;;;6.56;82.19
75438;BME280;64015;49.392;15.582;2024-02-14T10:30:30;96222.97;;;6.50;81.52
75438;BME280;64015;49.392;15.582;2024-02-14T10:32:58;96227.03;;;6.69;79.89
75438;BME280;64015;49.392;15.582;2024-02-14T10:35:25;96209.59;;;6.75;79.96
75438;BME280;64015;49.392;15.582;2024-02-14T10:37:51;96213.91;;;7.21;78.01
75438;BME280;64015;49.392;15.582;2024-02-14T10:40:20;96231.88;;;7.58;75.16
75438;BME280;64015;49.392;15.582;2024-02-14T10:42:46;96231.69;;;8.43;70.95
75438;BME280;64015;49.392;15.582;2024-02-14T10:45:12;96206.03;;;8.33;70.63
75438;BME280;64015;49.392;15.582;2024-02-14T10:47:40;96209.94;;;8.69;69.47
75438;BME280;64015;49.392;15.582;2024-02-14T10:50:09;96207.53;;;8.68;68.46
75438;BME280;64015;49.392;15.582;2024-02-14T10:52:37;96223.19;;;8.57;67.27
75438;BME280;64015;49.392;15.582;2024-02-14T10:55:11;96218.81;;;9.07;66.09
75438;BME280;64015;49.392;15.582;2024-02-14T10:57:37;96215.47;;;8.73;67.94
75438;BME280;64015;49.392;15.582;2024-02-14T11:00:09;96212.47;;;8.64;69.14
75438;BME280;64015;49.392;15.582;2024-02-14T11:02:36;96202.28;;;8.68;67.81
75438;BME280;64015;49.392;15.582;2024-02-14T11:05:02;96210.22;;;8.51;68.24
75438;BME280;64015;49.392;15.582;2024-02-14T11:07:28;96210.44;;;8.88;67.94
75438;BME280;64015;49.392;15.582;2024-02-14T11:10:04;96211.03;;;8.95;66.97
75438;BME280;64015;49.392;15.582;2024-02-14T11:12:36;96204.16;;;9.69;63.98
75438;BME280;64015;49.392;15.582;2024-02-14T11:15:18;96188.50;;;10.64;60.58
75438;BME280;64015;49.392;15.582;2024-02-14T11:17:44;96198.56;;;10.30;60.10
75438;BME280;64015;49.392;15.582;2024-02-14T11:20:31;96194.41;;;10.34;60.00
75438;BME280;64015;49.392;15.582;2024-02-14T11:23:02;96189.84;;;11.74;56.93
75438;BME280;64015;49.392;15.582;2024-02-14T11:25:29;96186.31;;;12.75;53.36
75438;BME280;64015;49.392;15.582;2024-02-14T11:27:57;96171.00;;;13.65;51.07
75438;BME280;64015;49.392;15.582;2024-02-14T11:30:50;96166.75;;;14.32;47.49
75438;BME280;64015;49.392;15.582;2024-02-14T11:33:20;96170.56;;;12.14;51.65
75438;BME280;64015;49.392;15.582;2024-02-14T11:35:50;96154.28;;;10.84;55.31
75438;BME280;64015;49.392;15.582;2024-02-14T11:38:20;96162.31;;;10.52;57.19
75438;BME280;64015;49.392;15.582;2024-02-14T11:40:46;96162.25;;;10.37;57.71
75438;BME280;64015;49.392;15.582;2024-02-14T11:43:17;96163.47;;;10.19;60.04
75438;BME280;64015;49.392;15.582;2024-02-14T11:45:44;96171.72;;;10.01;60.27
75438;BME280;64015;49.392;15.582;2024-02-14T11:48:12;96166.69;;;9.94;61.21
75438;BME280;64015;49.392;15.582;2024-02-14T11:50:40;96162.09;;;9.80;61.89
75438;BME280;64015;49.392;15.582;2024-02-14T11:53:07;96176.31;;;10.58;60.49
75438;BME280;64015;49.392;15.582;2024-02-14T11:55:40;96178.13;;;10.52;59.35
75438;BME280;64015;49.392;15.582;2024-02-14T11:58:10;96178.50;;;10.76;60.08
75438;BME280;64015;49.392;15.582;2024-02-14T12:00:40;96160.22;;;10.54;60.66
75438;BME280;64015;49.392;15.582;2024-02-14T12:03:08;96151.19;;;10.03;62.03
75438;BME280;64015;49.392;15.582;2024-02-14T12:05:36;96147.16;;;10.27;60.95
75438;BME280;64015;49.392;15.582;2024-02-14T12:08:04;96172.06;;;10.46;59.80
75438;BME280;64015;49.392;15.582;2024-02-14T12:10:35;96160.13;;;9.65;60.97
75438;BME280;64015;49.392;15.582;2024-02-14T12:13:12;96165.41;;;9.38;62.98
75438;BME280;64015;49.392;15.582;2024-02-14T12:15:44;96158.97;;;9.51;63.65
75438;BME280;64015;49.392;15.582;2024-02-14T12:18:11;96140.34;;;9.04;64.69
75438;BME280;64015;49.392;15.582;2024-02-14T12:20:41;96173.09;;;9.18;66.13
75438;BME280;64015;49.392;15.582;2024-02-14T12:23:07;96160.22;;;8.89;65.67
75438;BME280;64015;49.392;15.582;2024-02-14T12:25:33;96177.06;;;8.72;65.46
75438;BME280;64015;49.392;15.582;2024-02-14T12:28:00;96145.63;;;9.62;62.59
75438;BME280;64015;49.392;15.582;2024-02-14T12:30:49;96160.72;;;10.51;58.92
75438;BME280;64015;49.392;15.582;2024-02-14T12:33:16;96142.31;;;10.14;60.57
75438;BME280;64015;49.392;15.582;2024-02-14T12:35:46;96141.88;;;10.95;59.11
75438;BME280;64015;49.392;15.582;2024-02-14T12:38:13;96141.72;;;11.32;57.52
75438;BME280;64015;49.392;15.582;2024-02-14T12:40:40;96150.69;;;11.20;57.21
75438;BME280;64015;49.392;15.582;2024-02-14T12:43:10;96145.66;;;11.19;56.61
75438;BME280;64015;49.392;15.582;2024-02-14T12:45:37;96145.41;;;10.48;58.38
75438;BME280;64015;49.392;15.582;2024-02-14T12:48:04;96155.97;;;10.06;60.78
75438;BME280;64015;49.392;15.582;2024-02-14T12:50:31;96156.41;;;9.61;62.37
75438;BME280;64015;49.392;15.582;2024-02-14T12:52:57;96146.03;;;9.49;63.63